sensor_id;sensor_type;location;lat;lon;timestamp;P1;durP1;ratioP1;P2;durP2;ratioP2
48809;SDS011;40070;47.322;18.784;2024-03-02T00:01:50;22.01;;;9.90;;
48809;SDS011;40070;47.322;18.784;2024-03-02T00:03:51;20.83;;;10.65;;
48809;SDS011;40070;47.322;18.784;2024-03-02T00:05:53;20.69;;;10.91;;
48809;SDS011;40070;47.322;18.784;2024-03-02T00:07:54;17.58;;;10.17;;
48809;SDS011;40070;47.322;18.784;2024-03-02T00:09:55;21.88;;;10.09;;
48809;SDS011;40070;47.322;18.784;2024-03-02T00:11:56;18.39;;;10.26;;
48809;SDS011;40070;47.322;18.784;2024-03-02T00:13:57;19.73;;;10.00;;
48809;SDS011;40070;47.322;18.784;2024-03-02T00:16:10;17.82;;;10.83;;
48809;SDS011;40070;47.322;18.784;2024-03-02T00:18:12;16.83;;;10.01;;
48809;SDS011;40070;47.322;18.784;2024-03-02T00:20:12;18.79;;;10.35;;
48809;SDS011;40070;47.322;18.784;2024-03-02T00:22:14;17.89;;;10.17;;
48809;SDS011;40070;47.322;18.784;2024-03-02T00:24:20;17.25;;;9.61;;
48809;SDS011;40070;47.322;18.784;2024-03-02T00:26:19;19.78;;;10.40;;
48809;SDS011;40070;47.322;18.784;2024-03-02T00:28:24;23.78;;;10.03;;
48809;SDS011;40070;47.322;18.784;2024-03-02T00:32:22;19.24;;;10.27;;
48809;SDS011;40070;47.322;18.784;2024-03-02T00:34:24;16.13;;;9.65;;
48809;SDS011;40070;47.322;18.784;2024-03-02T00:36:26;21.65;;;11.04;;
48809;SDS011;40070;47.322;18.784;2024-03-02T00:38:27;17.99;;;10.38;;
48809;SDS011;40070;47.322;18.784;2024-03-02T00:40:28;16.53;;;9.83;;
48809;SDS011;40070;47.322;18.784;2024-03-02T00:42:31;17.59;;;9.37;;
48809;SDS011;40070;47.322;18.784;2024-03-02T00:44:38;18.11;;;10.02;;
48809;SDS011;40070;47.322;18.784;2024-03-02T00:46:41;17.45;;;9.81;;
48809;SDS011;40070;47.322;18.784;2024-03-02T00:48:50;18.81;;;10.43;;
48809;SDS011;40070;47.322;18.784;2024-03-02T00:50:44;19.62;;;10.89;;
48809;SDS011;40070;47.322;18.784;2024-03-02T00:52:46;18.66;;;10.62;;
48809;SDS011;40070;47.322;18.784;2024-03-02T00:54:47;17.99;;;9.65;;
48809;SDS011;40070;47.322;18.784;2024-03-02T00:56:48;19.98;;;11.27;;
48809;SDS011;40070;47.322;18.784;2024-03-02T00:58:49;17.87;;;10.26;;
48809;SDS011;40070;47.322;18.784;2024-03-02T01:00:51;19.30;;;10.00;;
48809;SDS011;40070;47.322;18.784;2024-03-02T01:02:51;17.52;;;9.76;;
48809;SDS011;40070;47.322;18.784;2024-03-02T01:04:52;18.02;;;10.51;;
48809;SDS011;40070;47.322;18.784;2024-03-02T01:06:54;20.07;;;10.40;;
48809;SDS011;40070;47.322;18.784;2024-03-02T01:08:55;20.66;;;11.58;;
48809;SDS011;40070;47.322;18.784;2024-03-02T01:10:56;20.94;;;10.28;;
48809;SDS011;40070;47.322;18.784;2024-03-02T01:12:57;16.92;;;10.35;;
48809;SDS011;40070;47.322;18.784;2024-03-02T01:14:58;21.51;;;10.94;;
48809;SDS011;40070;47.322;18.784;2024-03-02T01:16:59;20.53;;;11.48;;
48809;SDS011;40070;47.322;18.784;2024-03-02T01:19:00;22.68;;;11.20;;
48809;SDS011;40070;47.322;18.784;2024-03-02T01:21:01;24.39;;;10.54;;
48809;SDS011;40070;47.322;18.784;2024-03-02T01:23:02;20.22;;;10.51;;
48809;SDS011;40070;47.322;18.784;2024-03-02T01:25:03;18.43;;;9.85;;
48809;SDS011;40070;47.322;18.784;2024-03-02T01:27:04;16.38;;;10.03;;
48809;SDS011;40070;47.322;18.784;2024-03-02T01:29:05;19.04;;;11.46;;
48809;SDS011;40070;47.322;18.784;2024-03-02T01:31:06;20.17;;;9.75;;
48809;SDS011;40070;47.322;18.784;2024-03-02T01:33:08;19.85;;;9.84;;
48809;SDS011;40070;47.322;18.784;2024-03-02T01:35:09;16.22;;;10.08;;
48809;SDS011;40070;47.322;18.784;2024-03-02T01:37:10;18.07;;;9.74;;
48809;SDS011;40070;47.322;18.784;2024-03-02T01:39:11;18.51;;;10.70;;
48809;SDS011;40070;47.322;18.784;2024-03-02T01:41:13;19.14;;;10.34;;
48809;SDS011;40070;47.322;18.784;2024-03-02T01:43:14;17.36;;;9.68;;
48809;SDS011;40070;47.322;18.784;2024-03-02T01:45:15;18.29;;;9.22;;
48809;SDS011;40070;47.322;18.784;2024-03-02T01:47:16;28.38;;;10.87;;
48809;SDS011;40070;47.322;18.784;2024-03-02T01:49:17;17.45;;;10.11;;
48809;SDS011;40070;47.322;18.784;2024-03-02T01:51:18;16.66;;;9.53;;
48809;SDS011;40070;47.322;18.784;2024-03-02T01:53:19;19.19;;;9.53;;
48809;SDS011;40070;47.322;18.784;2024-03-02T01:55:20;16.37;;;8.77;;
48809;SDS011;40070;47.322;18.784;2024-03-02T01:57:21;18.35;;;9.58;;
48809;SDS011;40070;47.322;18.784;2024-03-02T01:59:22;16.93;;;9.48;;
48809;SDS011;40070;47.322;18.784;2024-03-02T02:01:23;16.54;;;9.27;;
48809;SDS011;40070;47.322;18.784;2024-03-02T02:03:24;19.30;;;9.09;;
48809;SDS011;40070;47.322;18.784;2024-03-02T02:05:25;17.88;;;9.38;;
48809;SDS011;40070;47.322;18.784;2024-03-02T02:07:26;15.68;;;8.51;;
48809;SDS011;40070;47.322;18.784;2024-03-02T02:09:26;16.57;;;9.38;;
48809;SDS011;40070;47.322;18.784;2024-03-02T02:11:27;16.21;;;9.11;;
48809;SDS011;40070;47.322;18.784;2024-03-02T02:13:28;17.60;;;8.91;;
48809;SDS011;40070;47.322;18.784;2024-03-02T02:15:29;15.53;;;9.48;;
48809;SDS011;40070;47.322;18.784;2024-03-02T02:17:30;20.65;;;9.29;;
48809;SDS011;40070;47.322;18.784;2024-03-02T02:19:31;17.94;;;10.16;;
48809;SDS011;40070;47.322;18.784;2024-03-02T02:21:33;16.13;;;8.70;;
48809;SDS011;40070;47.322;18.784;2024-03-02T02:23:34;18.53;;;9.46;;
48809;SDS011;40070;47.322;18.784;2024-03-02T02:25:36;17.52;;;9.09;;
48809;SDS011;40070;47.322;18.784;2024-03-02T02:27:37;18.69;;;9.40;;
48809;SDS011;40070;47.322;18.784;2024-03-02T02:29:38;16.24;;;8.53;;
48809;SDS011;40070;47.322;18.784;2024-03-02T02:31:39;18.46;;;9.60;;
48809;SDS011;40070;47.322;18.784;2024-03-02T02:33:41;16.32;;;8.63;;
48809;SDS011;40070;47.322;18.784;2024-03-02T02:35:42;19.89;;;9.58;;
48809;SDS011;40070;47.322;18.784;2024-03-02T02:37:43;17.90;;;9.77;;
48809;SDS011;40070;47.322;18.784;2024-03-02T02:39:47;16.04;;;8.90;;
48809;SDS011;40070;47.322;18.784;2024-03-02T02:41:48;16.21;;;9.18;;
48809;SDS011;40070;47.322;18.784;2024-03-02T02:43:48;16.16;;;9.10;;
48809;SDS011;40070;47.322;18.784;2024-03-02T02:45:49;15.77;;;9.20;;
48809;SDS011;40070;47.322;18.784;2024-03-02T02:47:50;15.78;;;9.01;;
48809;SDS011;40070;47.322;18.784;2024-03-02T02:49:51;16.30;;;9.01;;
48809;SDS011;40070;47.322;18.784;2024-03-02T02:51:52;16.86;;;9.02;;
48809;SDS011;40070;47.322;18.784;2024-03-02T02:53:53;16.28;;;8.52;;
48809;SDS011;40070;47.322;18.784;2024-03-02T02:55:54;19.06;;;9.13;;
48809;SDS011;40070;47.322;18.784;2024-03-02T02:57:55;18.19;;;9.13;;
48809;SDS011;40070;47.322;18.784;2024-03-02T02:59:56;16.90;;;8.15;;
48809;SDS011;40070;47.322;18.784;2024-03-02T03:01:57;17.56;;;8.55;;
48809;SDS011;40070;47.322;18.784;2024-03-02T03:03:58;17.30;;;8.65;;
48809;SDS011;40070;47.322;18.784;2024-03-02T03:06:00;16.23;;;8.94;;
48809;SDS011;40070;47.322;18.784;2024-03-02T03:08:01;16.99;;;9.32;;
48809;SDS011;40070;47.322;18.784;2024-03-02T03:10:02;16.51;;;8.63;;
48809;SDS011;40070;47.322;18.784;2024-03-02T03:12:04;16.01;;;8.83;;
48809;SDS011;40070;47.322;18.784;2024-03-02T03:14:05;17.09;;;9.32;;
48809;SDS011;40070;47.322;18.784;2024-03-02T03:16:07;19.63;;;9.41;;
48809;SDS011;40070;47.322;18.784;2024-03-02T03:18:08;17.58;;;9.41;;
48809;SDS011;40070;47.322;18.784;2024-03-02T03:20:09;20.04;;;8.93;;
48809;SDS011;40070;47.322;18.784;2024-03-02T03:22:10;14.38;;;8.44;;
48809;SDS011;40070;47.322;18.784;2024-03-02T03:24:11;17.01;;;9.32;;
48809;SDS011;40070;47.322;18.784;2024-03-02T03:26:12;17.64;;;9.23;;
48809;SDS011;40070;47.322;18.784;2024-03-02T03:28:13;17.24;;;9.99;;
48809;SDS011;40070;47.322;18.784;2024-03-02T03:30:14;18.52;;;9.13;;
48809;SDS011;40070;47.322;18.784;2024-03-02T03:32:15;16.85;;;8.94;;
48809;SDS011;40070;47.322;18.784;2024-03-02T03:34:16;18.06;;;9.03;;
48809;SDS011;40070;47.322;18.784;2024-03-02T03:36:17;17.47;;;9.03;;
48809;SDS011;40070;47.322;18.784;2024-03-02T03:38:18;19.39;;;10.50;;
48809;SDS011;40070;47.322;18.784;2024-03-02T03:40:19;23.82;;;10.43;;
48809;SDS011;40070;47.322;18.784;2024-03-02T03:42:20;21.72;;;10.32;;
48809;SDS011;40070;47.322;18.784;2024-03-02T03:44:21;18.62;;;10.02;;
48809;SDS011;40070;47.322;18.784;2024-03-02T03:46:22;19.43;;;10.00;;
48809;SDS011;40070;47.322;18.784;2024-03-02T03:48:23;22.49;;;10.67;;
48809;SDS011;40070;47.322;18.784;2024-03-02T03:50:24;19.85;;;10.37;;
48809;SDS011;40070;47.322;18.784;2024-03-02T03:52:25;19.35;;;9.47;;
48809;SDS011;40070;47.322;18.784;2024-03-02T03:54:26;18.73;;;9.89;;
48809;SDS011;40070;47.322;18.784;2024-03-02T03:56:27;19.62;;;9.86;;
48809;SDS011;40070;47.322;18.784;2024-03-02T03:58:28;21.60;;;9.74;;
48809;SDS011;40070;47.322;18.784;2024-03-02T04:00:29;19.47;;;9.67;;
48809;SDS011;40070;47.322;18.784;2024-03-02T04:02:30;23.75;;;11.27;;
48809;SDS011;40070;47.322;18.784;2024-03-02T04:04:31;19.06;;;9.67;;
48809;SDS011;40070;47.322;18.784;2024-03-02T04:06:31;20.34;;;10.13;;
48809;SDS011;40070;47.322;18.784;2024-03-02T04:08:33;19.13;;;9.36;;
48809;SDS011;40070;47.322;18.784;2024-03-02T04:10:34;20.62;;;10.79;;
48809;SDS011;40070;47.322;18.784;2024-03-02T04:12:35;17.08;;;9.49;;
48809;SDS011;40070;47.322;18.784;2024-03-02T04:14:36;16.49;;;9.85;;
48809;SDS011;40070;47.322;18.784;2024-03-02T04:16:37;20.23;;;10.80;;
48809;SDS011;40070;47.322;18.784;2024-03-02T04:18:38;19.87;;;10.32;;
48809;SDS011;40070;47.322;18.784;2024-03-02T04:20:39;20.24;;;10.78;;
48809;SDS011;40070;47.322;18.784;2024-03-02T04:22:40;18.87;;;9.92;;
48809;SDS011;40070;47.322;18.784;2024-03-02T04:24:41;21.75;;;10.36;;
48809;SDS011;40070;47.322;18.784;2024-03-02T04:26:42;19.35;;;9.59;;
48809;SDS011;40070;47.322;18.784;2024-03-02T04:28:43;19.37;;;10.80;;
48809;SDS011;40070;47.322;18.784;2024-03-02T04:30:44;19.14;;;11.03;;
48809;SDS011;40070;47.322;18.784;2024-03-02T04:32:45;19.26;;;10.02;;
48809;SDS011;40070;47.322;18.784;2024-03-02T04:34:46;20.88;;;11.20;;
48809;SDS011;40070;47.322;18.784;2024-03-02T04:36:47;19.10;;;10.35;;
48809;SDS011;40070;47.322;18.784;2024-03-02T04:38:48;20.58;;;10.63;;
48809;SDS011;40070;47.322;18.784;2024-03-02T04:40:49;18.98;;;9.94;;
48809;SDS011;40070;47.322;18.784;2024-03-02T04:42:50;20.35;;;10.58;;
48809;SDS011;40070;47.322;18.784;2024-03-02T04:44:51;20.81;;;10.60;;
48809;SDS011;40070;47.322;18.784;2024-03-02T04:46:52;20.21;;;10.87;;
48809;SDS011;40070;47.322;18.784;2024-03-02T04:48:52;21.46;;;11.15;;
48809;SDS011;40070;47.322;18.784;2024-03-02T04:50:53;18.73;;;10.24;;
48809;SDS011;40070;47.322;18.784;2024-03-02T04:52:54;19.42;;;10.04;;
48809;SDS011;40070;47.322;18.784;2024-03-02T04:54:55;20.95;;;11.25;;
48809;SDS011;40070;47.322;18.784;2024-03-02T04:56:56;18.94;;;10.60;;
48809;SDS011;40070;47.322;18.784;2024-03-02T04:58:57;23.79;;;11.84;;
48809;SDS011;40070;47.322;18.784;2024-03-02T05:00:58;17.43;;;10.76;;
48809;SDS011;40070;47.322;18.784;2024-03-02T05:02:59;20.52;;;10.91;;
48809;SDS011;40070;47.322;18.784;2024-03-02T05:05:00;20.92;;;10.56;;
48809;SDS011;40070;47.322;18.784;2024-03-02T05:07:01;19.82;;;10.87;;
48809;SDS011;40070;47.322;18.784;2024-03-02T05:09:02;20.84;;;10.35;;
48809;SDS011;40070;47.322;18.784;2024-03-02T05:11:03;21.83;;;10.61;;
48809;SDS011;40070;47.322;18.784;2024-03-02T05:13:04;19.96;;;10.63;;
48809;SDS011;40070;47.322;18.784;2024-03-02T05:15:05;19.70;;;10.53;;
48809;SDS011;40070;47.322;18.784;2024-03-02T05:17:07;22.31;;;11.10;;
48809;SDS011;40070;47.322;18.784;2024-03-02T05:19:08;17.62;;;10.10;;
48809;SDS011;40070;47.322;18.784;2024-03-02T05:21:09;19.75;;;11.20;;
48809;SDS011;40070;47.322;18.784;2024-03-02T05:23:10;21.48;;;10.61;;
48809;SDS011;40070;47.322;18.784;2024-03-02T05:25:11;18.83;;;10.05;;
48809;SDS011;40070;47.322;18.784;2024-03-02T05:27:12;20.58;;;10.28;;
48809;SDS011;40070;47.322;18.784;2024-03-02T05:29:13;20.86;;;10.59;;
48809;SDS011;40070;47.322;18.784;2024-03-02T05:31:17;20.93;;;11.78;;
48809;SDS011;40070;47.322;18.784;2024-03-02T05:33:15;20.13;;;10.76;;
48809;SDS011;40070;47.322;18.784;2024-03-02T05:35:16;21.51;;;11.59;;
48809;SDS011;40070;47.322;18.784;2024-03-02T05:37:17;21.23;;;11.37;;
48809;SDS011;40070;47.322;18.784;2024-03-02T05:39:18;22.21;;;10.52;;
48809;SDS011;40070;47.322;18.784;2024-03-02T05:41:19;22.06;;;10.62;;
48809;SDS011;40070;47.322;18.784;2024-03-02T05:43:20;18.53;;;10.18;;
48809;SDS011;40070;47.322;18.784;2024-03-02T05:45:21;19.14;;;10.42;;
48809;SDS011;40070;47.322;18.784;2024-03-02T05:47:22;17.56;;;9.98;;
48809;SDS011;40070;47.322;18.784;2024-03-02T05:49:23;19.09;;;10.34;;
48809;SDS011;40070;47.322;18.784;2024-03-02T05:51:24;17.92;;;10.35;;
48809;SDS011;40070;47.322;18.784;2024-03-02T05:53:25;19.98;;;9.58;;
48809;SDS011;40070;47.322;18.784;2024-03-02T05:55:27;18.64;;;10.36;;
48809;SDS011;40070;47.322;18.784;2024-03-02T05:57:28;21.00;;;11.28;;
48809;SDS011;40070;47.322;18.784;2024-03-02T05:59:29;22.52;;;10.67;;
48809;SDS011;40070;47.322;18.784;2024-03-02T06:01:30;19.84;;;10.27;;
48809;SDS011;40070;47.322;18.784;2024-03-02T06:03:31;25.15;;;11.71;;
48809;SDS011;40070;47.322;18.784;2024-03-02T06:05:32;19.48;;;10.98;;
48809;SDS011;40070;47.322;18.784;2024-03-02T06:07:33;23.65;;;11.97;;
48809;SDS011;40070;47.322;18.784;2024-03-02T06:09:34;22.88;;;11.12;;
48809;SDS011;40070;47.322;18.784;2024-03-02T06:11:35;21.15;;;11.32;;
48809;SDS011;40070;47.322;18.784;2024-03-02T06:13:36;22.80;;;12.20;;
48809;SDS011;40070;47.322;18.784;2024-03-02T06:15:37;20.86;;;11.13;;
48809;SDS011;40070;47.322;18.784;2024-03-02T06:17:38;22.93;;;11.26;;
48809;SDS011;40070;47.322;18.784;2024-03-02T06:19:39;19.85;;;10.92;;
48809;SDS011;40070;47.322;18.784;2024-03-02T06:21:40;19.64;;;10.47;;
48809;SDS011;40070;47.322;18.784;2024-03-02T06:23:41;20.22;;;11.48;;
48809;SDS011;40070;47.322;18.784;2024-03-02T06:25:42;18.62;;;10.90;;
48809;SDS011;40070;47.322;18.784;2024-03-02T06:27:43;22.01;;;11.17;;
48809;SDS011;40070;47.322;18.784;2024-03-02T06:29:44;18.43;;;10.35;;
48809;SDS011;40070;47.322;18.784;2024-03-02T06:31:45;19.28;;;10.56;;
48809;SDS011;40070;47.322;18.784;2024-03-02T06:33:46;20.52;;;10.87;;
48809;SDS011;40070;47.322;18.784;2024-03-02T06:35:47;22.00;;;11.36;;
48809;SDS011;40070;47.322;18.784;2024-03-02T06:37:48;20.19;;;11.31;;
48809;SDS011;40070;47.322;18.784;2024-03-02T06:39:49;21.64;;;11.69;;
48809;SDS011;40070;47.322;18.784;2024-03-02T06:41:50;22.33;;;11.83;;
48809;SDS011;40070;47.322;18.784;2024-03-02T06:43:51;19.60;;;10.72;;
48809;SDS011;40070;47.322;18.784;2024-03-02T06:45:52;21.36;;;11.59;;
48809;SDS011;40070;47.322;18.784;2024-03-02T06:47:53;19.15;;;10.00;;
48809;SDS011;40070;47.322;18.784;2024-03-02T06:49:54;20.66;;;11.91;;
48809;SDS011;40070;47.322;18.784;2024-03-02T06:51:55;21.62;;;11.23;;
48809;SDS011;40070;47.322;18.784;2024-03-02T06:53:55;20.30;;;11.09;;
48809;SDS011;40070;47.322;18.784;2024-03-02T06:55:56;24.47;;;11.79;;
48809;SDS011;40070;47.322;18.784;2024-03-02T06:57:57;26.82;;;12.02;;
48809;SDS011;40070;47.322;18.784;2024-03-02T06:59:58;25.69;;;11.51;;
48809;SDS011;40070;47.322;18.784;2024-03-02T07:01:59;22.44;;;11.88;;
48809;SDS011;40070;47.322;18.784;2024-03-02T07:04:00;19.87;;;11.30;;
48809;SDS011;40070;47.322;18.784;2024-03-02T07:06:01;22.79;;;12.56;;
48809;SDS011;40070;47.322;18.784;2024-03-02T07:08:02;20.43;;;11.12;;
48809;SDS011;40070;47.322;18.784;2024-03-02T07:10:03;21.10;;;11.97;;
48809;SDS011;40070;47.322;18.784;2024-03-02T07:12:05;23.63;;;12.27;;
48809;SDS011;40070;47.322;18.784;2024-03-02T07:14:06;20.16;;;11.57;;
48809;SDS011;40070;47.322;18.784;2024-03-02T07:16:07;23.82;;;11.56;;
48809;SDS011;40070;47.322;18.784;2024-03-02T07:18:08;21.60;;;12.16;;
48809;SDS011;40070;47.322;18.784;2024-03-02T07:20:09;24.35;;;12.45;;
48809;SDS011;40070;47.322;18.784;2024-03-02T07:22:10;18.57;;;11.35;;
48809;SDS011;40070;47.322;18.784;2024-03-02T07:24:11;22.01;;;12.47;;
48809;SDS011;40070;47.322;18.784;2024-03-02T07:26:12;23.07;;;12.74;;
48809;SDS011;40070;47.322;18.784;2024-03-02T07:28:13;20.71;;;12.00;;
48809;SDS011;40070;47.322;18.784;2024-03-02T07:30:14;22.72;;;12.48;;
48809;SDS011;40070;47.322;18.784;2024-03-02T07:32:15;21.12;;;12.43;;
48809;SDS011;40070;47.322;18.784;2024-03-02T07:34:16;19.97;;;11.83;;
48809;SDS011;40070;47.322;18.784;2024-03-02T07:36:17;23.03;;;12.00;;
48809;SDS011;40070;47.322;18.784;2024-03-02T07:38:18;23.39;;;10.77;;
48809;SDS011;40070;47.322;18.784;2024-03-02T07:40:19;19.28;;;11.47;;
48809;SDS011;40070;47.322;18.784;2024-03-02T07:42:20;19.22;;;11.63;;
48809;SDS011;40070;47.322;18.784;2024-03-02T07:44:21;21.77;;;11.72;;
48809;SDS011;40070;47.322;18.784;2024-03-02T07:46:22;24.53;;;12.05;;
48809;SDS011;40070;47.322;18.784;2024-03-02T07:48:23;22.22;;;12.60;;
48809;SDS011;40070;47.322;18.784;2024-03-02T07:50:24;18.84;;;11.60;;
48809;SDS011;40070;47.322;18.784;2024-03-02T07:52:25;19.57;;;11.41;;
48809;SDS011;40070;47.322;18.784;2024-03-02T07:54:26;23.02;;;12.02;;
48809;SDS011;40070;47.322;18.784;2024-03-02T07:56:27;21.63;;;11.18;;
48809;SDS011;40070;47.322;18.784;2024-03-02T07:58:29;21.72;;;11.81;;
48809;SDS011;40070;47.322;18.784;2024-03-02T08:00:29;25.66;;;13.12;;
48809;SDS011;40070;47.322;18.784;2024-03-02T08:02:30;21.61;;;12.21;;
48809;SDS011;40070;47.322;18.784;2024-03-02T08:04:32;18.93;;;11.24;;
48809;SDS011;40070;47.322;18.784;2024-03-02T08:06:33;21.15;;;12.41;;
48809;SDS011;40070;47.322;18.784;2024-03-02T08:08:34;23.35;;;12.37;;
48809;SDS011;40070;47.322;18.784;2024-03-02T08:10:36;22.90;;;11.85;;
48809;SDS011;40070;47.322;18.784;2024-03-02T08:12:37;20.46;;;11.97;;
48809;SDS011;40070;47.322;18.784;2024-03-02T08:14:38;20.13;;;12.75;;
48809;SDS011;40070;47.322;18.784;2024-03-02T08:16:39;21.83;;;12.24;;
48809;SDS011;40070;47.322;18.784;2024-03-02T08:18:40;19.97;;;11.73;;
48809;SDS011;40070;47.322;18.784;2024-03-02T08:20:41;23.28;;;12.53;;
48809;SDS011;40070;47.322;18.784;2024-03-02T08:22:42;21.08;;;12.86;;
48809;SDS011;40070;47.322;18.784;2024-03-02T08:24:43;20.13;;;12.13;;
48809;SDS011;40070;47.322;18.784;2024-03-02T08:26:44;20.64;;;11.28;;
48809;SDS011;40070;47.322;18.784;2024-03-02T08:28:45;20.05;;;11.85;;
48809;SDS011;40070;47.322;18.784;2024-03-02T08:30:46;19.88;;;11.44;;
48809;SDS011;40070;47.322;18.784;2024-03-02T08:32:47;22.45;;;12.81;;
48809;SDS011;40070;47.322;18.784;2024-03-02T08:34:48;23.36;;;12.29;;
48809;SDS011;40070;47.322;18.784;2024-03-02T08:36:49;22.41;;;12.24;;
48809;SDS011;40070;47.322;18.784;2024-03-02T08:38:50;18.34;;;12.18;;
48809;SDS011;40070;47.322;18.784;2024-03-02T08:40:51;20.31;;;11.89;;
48809;SDS011;40070;47.322;18.784;2024-03-02T08:42:52;21.79;;;12.57;;
48809;SDS011;40070;47.322;18.784;2024-03-02T08:44:53;20.43;;;11.83;;
48809;SDS011;40070;47.322;18.784;2024-03-02T08:46:54;21.80;;;13.25;;
48809;SDS011;40070;47.322;18.784;2024-03-02T08:48:55;21.28;;;12.05;;
48809;SDS011;40070;47.322;18.784;2024-03-02T08:50:57;20.70;;;11.59;;
48809;SDS011;40070;47.322;18.784;2024-03-02T08:52:58;22.19;;;11.92;;
48809;SDS011;40070;47.322;18.784;2024-03-02T08:54:59;20.69;;;12.22;;
48809;SDS011;40070;47.322;18.784;2024-03-02T08:57:00;22.65;;;12.13;;
48809;SDS011;40070;47.322;18.784;2024-03-02T08:59:01;21.30;;;12.41;;
48809;SDS011;40070;47.322;18.784;2024-03-02T09:01:02;20.36;;;12.33;;
48809;SDS011;40070;47.322;18.784;2024-03-02T09:03:03;20.81;;;12.07;;
48809;SDS011;40070;47.322;18.784;2024-03-02T09:05:04;19.73;;;11.88;;
48809;SDS011;40070;47.322;18.784;2024-03-02T09:07:04;19.30;;;11.28;;
48809;SDS011;40070;47.322;18.784;2024-03-02T09:09:05;20.81;;;11.60;;
48809;SDS011;40070;47.322;18.784;2024-03-02T09:11:06;17.28;;;10.77;;
48809;SDS011;40070;47.322;18.784;2024-03-02T09:13:13;17.67;;;11.45;;
48809;SDS011;40070;47.322;18.784;2024-03-02T09:15:09;18.36;;;10.61;;
48809;SDS011;40070;47.322;18.784;2024-03-02T09:17:10;18.88;;;9.54;;
48809;SDS011;40070;47.322;18.784;2024-03-02T09:19:11;18.80;;;10.40;;
48809;SDS011;40070;47.322;18.784;2024-03-02T09:21:12;18.15;;;11.58;;
48809;SDS011;40070;47.322;18.784;2024-03-02T09:23:13;17.22;;;10.36;;
48809;SDS011;40070;47.322;18.784;2024-03-02T09:25:14;18.24;;;10.21;;
48809;SDS011;40070;47.322;18.784;2024-03-02T09:27:15;18.29;;;10.85;;
48809;SDS011;40070;47.322;18.784;2024-03-02T09:29:16;17.18;;;10.76;;
48809;SDS011;40070;47.322;18.784;2024-03-02T09:31:17;16.96;;;10.06;;
48809;SDS011;40070;47.322;18.784;2024-03-02T09:33:18;18.75;;;10.53;;
48809;SDS011;40070;47.322;18.784;2024-03-02T09:35:19;19.09;;;11.61;;
48809;SDS011;40070;47.322;18.784;2024-03-02T09:37:21;15.99;;;9.53;;
48809;SDS011;40070;47.322;18.784;2024-03-02T09:39:22;16.94;;;10.64;;
48809;SDS011;40070;47.322;18.784;2024-03-02T09:41:23;20.97;;;10.35;;
48809;SDS011;40070;47.322;18.784;2024-03-02T09:43:25;18.06;;;10.58;;
48809;SDS011;40070;47.322;18.784;2024-03-02T09:45:26;16.60;;;9.95;;
48809;SDS011;40070;47.322;18.784;2024-03-02T09:47:27;18.57;;;11.44;;
48809;SDS011;40070;47.322;18.784;2024-03-02T09:49:28;19.02;;;10.69;;
48809;SDS011;40070;47.322;18.784;2024-03-02T09:51:31;17.95;;;9.89;;
48809;SDS011;40070;47.322;18.784;2024-03-02T09:53:31;18.44;;;9.45;;
48809;SDS011;40070;47.322;18.784;2024-03-02T09:55:33;17.10;;;10.91;;
48809;SDS011;40070;47.322;18.784;2024-03-02T09:57:34;19.51;;;11.51;;
48809;SDS011;40070;47.322;18.784;2024-03-02T09:59:35;19.66;;;10.50;;
48809;SDS011;40070;47.322;18.784;2024-03-02T10:01:39;17.52;;;9.98;;
48809;SDS011;40070;47.322;18.784;2024-03-02T10:03:44;15.63;;;9.53;;
48809;SDS011;40070;47.322;18.784;2024-03-02T10:05:44;16.91;;;10.01;;
48809;SDS011;40070;47.322;18.784;2024-03-02T10:07:53;16.13;;;9.85;;
48809;SDS011;40070;47.322;18.784;2024-03-02T10:09:58;15.65;;;9.34;;
48809;SDS011;40070;47.322;18.784;2024-03-02T10:12:06;15.83;;;9.23;;
48809;SDS011;40070;47.322;18.784;2024-03-02T10:14:11;14.27;;;8.32;;
48809;SDS011;40070;47.322;18.784;2024-03-02T10:16:13;14.04;;;8.53;;
48809;SDS011;40070;47.322;18.784;2024-03-02T10:18:09;13.15;;;7.62;;
48809;SDS011;40070;47.322;18.784;2024-03-02T10:20:22;14.56;;;9.12;;
48809;SDS011;40070;47.322;18.784;2024-03-02T10:22:06;14.99;;;9.05;;
48809;SDS011;40070;47.322;18.784;2024-03-02T10:24:06;15.67;;;9.79;;
48809;SDS011;40070;47.322;18.784;2024-03-02T10:26:25;19.14;;;9.93;;
48809;SDS011;40070;47.322;18.784;2024-03-02T10:28:08;18.12;;;10.34;;
48809;SDS011;40070;47.322;18.784;2024-03-02T10:30:10;13.93;;;8.73;;
48809;SDS011;40070;47.322;18.784;2024-03-02T10:32:11;15.46;;;9.35;;
48809;SDS011;40070;47.322;18.784;2024-03-02T10:34:13;14.58;;;8.85;;
48809;SDS011;40070;47.322;18.784;2024-03-02T10:36:15;13.53;;;8.26;;
48809;SDS011;40070;47.322;18.784;2024-03-02T10:38:16;11.99;;;7.43;;
48809;SDS011;40070;47.322;18.784;2024-03-02T10:40:17;11.97;;;7.23;;
48809;SDS011;40070;47.322;18.784;2024-03-02T10:42:20;11.79;;;7.60;;
48809;SDS011;40070;47.322;18.784;2024-03-02T10:44:24;11.69;;;7.10;;
48809;SDS011;40070;47.322;18.784;2024-03-02T10:46:28;12.38;;;7.52;;
48809;SDS011;40070;47.322;18.784;2024-03-02T10:48:27;11.00;;;6.86;;
48809;SDS011;40070;47.322;18.784;2024-03-02T10:50:29;10.99;;;6.59;;
48809;SDS011;40070;47.322;18.784;2024-03-02T10:52:30;12.14;;;7.82;;
48809;SDS011;40070;47.322;18.784;2024-03-02T10:54:31;10.98;;;6.24;;
48809;SDS011;40070;47.322;18.784;2024-03-02T10:56:34;8.96;;;5.95;;
48809;SDS011;40070;47.322;18.784;2024-03-02T10:58:35;9.55;;;5.98;;
48809;SDS011;40070;47.322;18.784;2024-03-02T11:00:38;8.70;;;5.68;;
48809;SDS011;40070;47.322;18.784;2024-03-02T11:02:43;9.29;;;6.21;;
48809;SDS011;40070;47.322;18.784;2024-03-02T11:04:44;11.11;;;6.25;;
48809;SDS011;40070;47.322;18.784;2024-03-02T11:06:47;9.86;;;5.65;;
48809;SDS011;40070;47.322;18.784;2024-03-02T11:08:49;11.19;;;6.32;;
48809;SDS011;40070;47.322;18.784;2024-03-02T11:10:51;11.19;;;6.29;;
48809;SDS011;40070;47.322;18.784;2024-03-02T11:13:02;9.54;;;5.78;;
48809;SDS011;40070;47.322;18.784;2024-03-02T11:15:01;9.87;;;6.06;;
48809;SDS011;40070;47.322;18.784;2024-03-02T11:17:06;11.50;;;6.67;;
48809;SDS011;40070;47.322;18.784;2024-03-02T11:19:11;11.07;;;6.01;;
48809;SDS011;40070;47.322;18.784;2024-03-02T11:21:10;9.02;;;5.75;;
48809;SDS011;40070;47.322;18.784;2024-03-02T11:23:11;10.54;;;6.03;;
48809;SDS011;40070;47.322;18.784;2024-03-02T11:25:25;10.40;;;6.12;;
48809;SDS011;40070;47.322;18.784;2024-03-02T11:29:42;8.30;;;5.55;;
48809;SDS011;40070;47.322;18.784;2024-03-02T11:31:22;10.26;;;6.36;;
48809;SDS011;40070;47.322;18.784;2024-03-02T11:33:38;10.28;;;6.43;;
48809;SDS011;40070;47.322;18.784;2024-03-02T11:35:42;9.46;;;5.40;;
48809;SDS011;40070;47.322;18.784;2024-03-02T11:37:39;7.74;;;4.51;;
48809;SDS011;40070;47.322;18.784;2024-03-02T11:39:40;8.66;;;5.26;;
48809;SDS011;40070;47.322;18.784;2024-03-02T11:41:41;6.78;;;4.74;;
48809;SDS011;40070;47.322;18.784;2024-03-02T11:43:42;8.61;;;4.83;;
48809;SDS011;40070;47.322;18.784;2024-03-02T11:45:47;10.16;;;5.94;;
48809;SDS011;40070;47.322;18.784;2024-03-02T11:47:53;9.76;;;5.04;;